Time;durP1;ratioP1;P1;durP2;ratioP2;P2;SDS_P1;SDS_P2;PMS_P1;PMS_P2;Temp;Humidity;BMP_temperature;BMP_pressure;BME280_temperature;BME280_humidity;BME280_pressure;Samples;Min_cycle;Max_cycle;Signal;HPM_P1;HPM_P2
2022/06/19 00:01:13;;;;;;;;;;;21.00;58.60;;;;;;5034432;28;19915;-74
2022/06/19 00:03:44;;;;;;;;;;;21.00;58.10;;;;;;5034639;28;19956;-74
2022/06/19 00:06:10;;;;;;;;;;;21.00;58.60;;;;;;5034535;28;19951;-73
2022/06/19 00:08:36;;;;;;;;;;;21.00;59.70;;;;;;5034446;28;20314;-73
2022/06/19 00:11:02;;;;;;;;;;;21.00;58.80;;;;;;5034080;28;20004;-74
2022/06/19 00:13:28;;;;;;;;;;;21.00;58.90;;;;;;5034317;28;19951;-73
2022/06/19 00:15:54;;;;;;;;;;;21.00;58.90;;;;;;5034412;28;19905;-73
2022/06/19 00:18:19;;;;;;;;;;;21.00;59.30;;;;;;5034314;28;20000;-73
2022/06/19 00:20:45;;;;;;;;;;;20.90;59.10;;;;;;5034001;28;20271;-74
2022/06/19 00:23:10;;;;;;;;;;;20.90;59.20;;;;;;5034546;28;20314;-74
2022/06/19 00:25:37;;;;;;;;;;;20.90;58.90;;;;;;5034220;28;19905;-75
2022/06/19 00:28:03;;;;;;;;;;;21.00;59.00;;;;;;5034022;28;19921;-73
2022/06/19 00:30:29;;;;;;;;;;;20.90;59.10;;;;;;5033764;28;20012;-73
2022/06/19 00:32:55;;;;;;;;;;;20.90;59.10;;;;;;5033992;28;20422;-73
2022/06/19 00:35:20;;;;;;;;;;;20.90;58.80;;;;;;5033756;28;19959;-73
2022/06/19 00:37:46;;;;;;;;;;;20.90;58.80;;;;;;5033714;28;19928;-73
2022/06/19 00:40:12;;;;;;;;;;;20.90;58.90;;;;;;5033896;28;19912;-72
2022/06/19 00:42:38;;;;;;;;;;;20.90;58.80;;;;;;5033895;28;19905;-73
2022/06/19 00:45:03;;;;;;;;;;;20.80;58.80;;;;;;5032579;28;19905;-73
2022/06/19 00:47:33;;;;;;;;;;;20.80;58.60;;;;;;5033737;28;19940;-74
2022/06/19 00:50:03;;;;;;;;;;;20.80;59.00;;;;;;5033905;28;19909;-73
2022/06/19 00:52:30;;;;;;;;;;;20.80;58.10;;;;;;5033650;28;19917;-73
2022/06/19 00:54:57;;;;;;;;;;;20.70;59.20;;;;;;5033787;28;19912;-72
2022/06/19 00:57:24;;;;;;;;;;;20.70;60.00;;;;;;5033711;28;19960;-73
2022/06/19 00:59:55;;;;;;;;;;;20.70;59.70;;;;;;5033828;28;19909;-72
2022/06/19 01:02:21;;;;;;;;;;;20.70;60.00;;;;;;5033196;28;19909;-73
2022/06/19 01:04:49;;;;;;;;;;;20.70;60.10;;;;;;5033864;28;19912;-74
2022/06/19 01:07:14;;;;;;;;;;;20.70;60.00;;;;;;5033669;28;19905;-73
2022/06/19 01:09:40;;;;;;;;;;;20.70;60.00;;;;;;5033690;28;20346;-73
2022/06/19 01:12:08;;;;;;;;;;;20.70;59.80;;;;;;5033915;28;19913;-73
2022/06/19 01:14:34;;;;;;;;;;;20.70;60.20;;;;;;5033513;28;20012;-74
2022/06/19 01:17:01;;;;;;;;;;;20.70;59.90;;;;;;5034260;28;19960;-74
2022/06/19 01:19:27;;;;;;;;;;;20.70;60.00;;;;;;5033652;28;19905;-74
2022/06/19 01:22:13;;;;;;;;;;;20.80;60.10;;;;;;5033847;28;19905;-73
2022/06/19 01:24:57;;;;;;;;;;;20.80;60.20;;;;;;5033420;28;20343;-74
2022/06/19 01:30:08;;;;;;;;;;;20.80;60.20;;;;;;5033034;28;19912;-73
2022/06/19 01:32:35;;;;;;;;;;;20.80;60.30;;;;;;5033564;28;19913;-74
2022/06/19 01:35:02;;;;;;;;;;;20.80;60.20;;;;;;5033637;28;19999;-74
2022/06/19 01:37:28;;;;;;;;;;;20.70;59.90;;;;;;5033096;28;19948;-74
2022/06/19 01:40:03;;;;;;;;;;;20.70;60.90;;;;;;5033624;28;19905;-72
2022/06/19 01:42:29;;;;;;;;;;;20.70;60.60;;;;;;5036200;28;20294;-74
2022/06/19 01:44:56;;;;;;;;;;;20.60;60.60;;;;;;5037275;28;19905;-74
2022/06/19 01:47:25;;;;;;;;;;;20.60;61.00;;;;;;5036925;28;19912;-74
2022/06/19 01:49:52;;;;;;;;;;;20.60;60.50;;;;;;5036920;28;20378;-74
2022/06/19 01:52:18;;;;;;;;;;;20.60;60.40;;;;;;5036790;28;19913;-74
2022/06/19 01:54:47;;;;;;;;;;;20.60;60.80;;;;;;5036850;28;19911;-72
2022/06/19 01:57:13;;;;;;;;;;;20.60;60.60;;;;;;5036678;28;20344;-73
2022/06/19 01:59:40;;;;;;;;;;;20.60;60.70;;;;;;5036572;28;19905;-73
2022/06/19 02:02:06;;;;;;;;;;;20.70;61.00;;;;;;5036540;28;19905;-73
2022/06/19 02:04:32;;;;;;;;;;;20.70;60.70;;;;;;5036556;28;19970;-74
2022/06/19 02:07:00;;;;;;;;;;;20.70;60.70;;;;;;5036706;28;20359;-73
2022/06/19 02:09:25;;;;;;;;;;;20.70;60.50;;;;;;5036622;28;19905;-73
2022/06/19 02:11:51;;;;;;;;;;;20.80;60.50;;;;;;5036436;28;19967;-73
2022/06/19 02:14:17;;;;;;;;;;;20.80;60.50;;;;;;5036532;28;19909;-74
2022/06/19 02:16:44;;;;;;;;;;;20.80;60.80;;;;;;5036279;28;20347;-73
2022/06/19 02:19:10;;;;;;;;;;;20.80;60.50;;;;;;5036373;28;19940;-74
2022/06/19 02:21:37;;;;;;;;;;;20.80;60.40;;;;;;5035421;28;19952;-74
2022/06/19 02:24:04;;;;;;;;;;;20.80;60.30;;;;;;5036387;28;19905;-72
2022/06/19 02:26:29;;;;;;;;;;;20.80;60.40;;;;;;5036155;28;20359;-74
2022/06/19 02:28:55;;;;;;;;;;;20.80;60.30;;;;;;5035128;28;19909;-73
2022/06/19 02:31:21;;;;;;;;;;;20.80;60.20;;;;;;5034990;28;19905;-74
2022/06/19 02:33:51;;;;;;;;;;;20.80;60.50;;;;;;5035863;28;20296;-74
2022/06/19 02:36:35;;;;;;;;;;;20.80;60.50;;;;;;5036232;28;19928;-73
2022/06/19 02:39:12;;;;;;;;;;;20.80;60.80;;;;;;5034725;28;19905;-73
2022/06/19 02:41:44;;;;;;;;;;;20.80;60.40;;;;;;5036231;28;19905;-71
2022/06/19 02:44:10;;;;;;;;;;;20.80;60.40;;;;;;5035891;28;19905;-73
2022/06/19 02:46:35;;;;;;;;;;;20.80;60.40;;;;;;5035700;28;20379;-74
2022/06/19 02:49:04;;;;;;;;;;;20.80;60.30;;;;;;5035760;28;20003;-74
2022/06/19 02:51:29;;;;;;;;;;;20.80;60.30;;;;;;5035648;28;19940;-74
2022/06/19 02:53:55;;;;;;;;;;;20.90;60.20;;;;;;5035396;28;19905;-73
2022/06/19 02:56:20;;;;;;;;;;;20.90;60.10;;;;;;5051054;28;19909;-73
2022/06/19 02:58:46;;;;;;;;;;;21.00;60.20;;;;;;5055533;28;19912;-74
2022/06/19 03:01:13;;;;;;;;;;;21.00;60.20;;;;;;5055348;28;19919;-73
2022/06/19 03:03:38;;;;;;;;;;;21.00;60.00;;;;;;5055409;28;19909;-73
2022/06/19 03:06:05;;;;;;;;;;;21.00;60.00;;;;;;5055389;28;19904;-73
2022/06/19 03:08:30;;;;;;;;;;;21.00;60.00;;;;;;5055188;28;19999;-74
2022/06/19 03:10:56;;;;;;;;;;;21.00;60.00;;;;;;5055316;28;19948;-72
2022/06/19 03:13:22;;;;;;;;;;;21.00;60.00;;;;;;5055234;28;19913;-73
2022/06/19 03:15:57;;;;;;;;;;;20.90;59.80;;;;;;5055046;28;19960;-70
2022/06/19 03:18:23;;;;;;;;;;;21.00;60.20;;;;;;5055317;28;20236;-73
2022/06/19 03:20:48;;;;;;;;;;;21.00;60.10;;;;;;5055092;28;19909;-73
2022/06/19 03:23:14;;;;;;;;;;;21.00;60.00;;;;;;5054997;28;19911;-73
2022/06/19 03:25:40;;;;;;;;;;;20.90;60.00;;;;;;5055042;28;19905;-72
2022/06/19 03:28:05;;;;;;;;;;;20.90;60.00;;;;;;5055165;28;19959;-72
2022/06/19 03:30:31;;;;;;;;;;;21.00;60.20;;;;;;5055032;28;19909;-73
2022/06/19 03:32:56;;;;;;;;;;;21.00;60.10;;;;;;5055018;28;20346;-73
2022/06/19 03:35:22;;;;;;;;;;;21.00;60.50;;;;;;5054995;28;20385;-73
2022/06/19 03:37:47;;;;;;;;;;;21.00;60.10;;;;;;5054565;28;20046;-73
2022/06/19 03:40:13;;;;;;;;;;;21.00;60.20;;;;;;5054675;28;20347;-73
2022/06/19 03:42:38;;;;;;;;;;;21.00;60.40;;;;;;5054522;28;20457;-73
2022/06/19 03:45:05;;;;;;;;;;;21.00;60.20;;;;;;5054799;28;20013;-73
2022/06/19 03:47:30;;;;;;;;;;;21.00;60.30;;;;;;5054513;28;20350;-73
2022/06/19 03:49:56;;;;;;;;;;;21.00;60.40;;;;;;5054590;28;20005;-74
2022/06/19 03:52:21;;;;;;;;;;;21.10;60.40;;;;;;5054545;28;19913;-73
2022/06/19 03:54:47;;;;;;;;;;;21.00;60.40;;;;;;5054454;28;20278;-74
2022/06/19 03:57:13;;;;;;;;;;;21.00;60.20;;;;;;5054183;28;19905;-74
2022/06/19 03:59:39;;;;;;;;;;;21.10;60.40;;;;;;5054528;28;19904;-74
2022/06/19 04:02:05;;;;;;;;;;;21.10;60.40;;;;;;5054425;28;19904;-73
2022/06/19 04:04:31;;;;;;;;;;;21.10;60.40;;;;;;5053963;28;20347;-73
2022/06/19 04:06:56;;;;;;;;;;;21.10;60.50;;;;;;5054303;28;19905;-72
2022/06/19 04:09:22;;;;;;;;;;;21.10;60.40;;;;;;5054370;28;19940;-73
2022/06/19 04:11:47;;;;;;;;;;;21.20;60.70;;;;;;5054175;28;19966;-73
2022/06/19 04:14:13;;;;;;;;;;;21.20;60.60;;;;;;5054272;28;19981;-73
2022/06/19 04:16:39;;;;;;;;;;;21.20;60.50;;;;;;5054329;28;19908;-73
2022/06/19 04:19:06;;;;;;;;;;;21.20;60.50;;;;;;5054194;28;20461;-73
2022/06/19 04:21:33;;;;;;;;;;;21.30;60.50;;;;;;5054167;28;19905;-73
2022/06/19 04:24:00;;;;;;;;;;;21.20;60.70;;;;;;5054046;28;19955;-73
2022/06/19 04:26:27;;;;;;;;;;;21.30;60.60;;;;;;5054388;28;19905;-72
2022/06/19 04:28:52;;;;;;;;;;;21.30;60.70;;;;;;5054879;28;19921;-73
2022/06/19 04:31:18;;;;;;;;;;;21.40;60.70;;;;;;5053850;28;19911;-73
2022/06/19 04:33:43;;;;;;;;;;;21.40;60.80;;;;;;5053978;28;20258;-72
2022/06/19 04:36:11;;;;;;;;;;;21.40;60.60;;;;;;5053942;28;20321;-73
2022/06/19 04:38:37;;;;;;;;;;;21.50;60.60;;;;;;5053997;28;19911;-74
2022/06/19 04:41:03;;;;;;;;;;;21.50;60.60;;;;;;5053675;28;19912;-72
2022/06/19 04:43:28;;;;;;;;;;;21.50;60.50;;;;;;5052859;28;20272;-73
2022/06/19 04:46:00;;;;;;;;;;;21.60;60.50;;;;;;5054350;28;19912;-73
2022/06/19 04:48:26;;;;;;;;;;;21.60;60.40;;;;;;5034836;28;19909;-73
2022/06/19 04:50:53;;;;;;;;;;;21.70;60.50;;;;;;5033853;28;19905;-74
2022/06/19 04:53:19;;;;;;;;;;;21.70;60.50;;;;;;5033560;28;19917;-74
2022/06/19 04:55:44;;;;;;;;;;;21.70;60.30;;;;;;5033621;28;19905;-73
2022/06/19 04:58:10;;;;;;;;;;;21.80;60.40;;;;;;5033912;28;19912;-74
2022/06/19 05:00:35;;;;;;;;;;;21.80;60.40;;;;;;5033991;28;19913;-73
2022/06/19 05:03:01;;;;;;;;;;;21.80;60.20;;;;;;5033728;28;19912;-72
2022/06/19 05:05:26;;;;;;;;;;;21.80;60.20;;;;;;5033692;28;19905;-72
2022/06/19 05:07:52;;;;;;;;;;;21.90;60.20;;;;;;5033793;28;19940;-74
2022/06/19 05:10:17;;;;;;;;;;;21.90;60.10;;;;;;5033731;28;19905;-76
2022/06/19 05:12:43;;;;;;;;;;;22.00;60.10;;;;;;5033638;28;19963;-73
2022/06/19 05:15:09;;;;;;;;;;;22.10;60.00;;;;;;5039064;28;19912;-74
2022/06/19 05:17:35;;;;;;;;;;;22.10;60.00;;;;;;5056586;28;19928;-73
2022/06/19 05:20:01;;;;;;;;;;;22.10;59.80;;;;;;5057591;28;19904;-74
2022/06/19 05:22:27;;;;;;;;;;;22.20;59.70;;;;;;5057480;28;19908;-74
2022/06/19 05:24:52;;;;;;;;;;;22.20;59.70;;;;;;5057387;28;19915;-73
2022/06/19 05:27:18;;;;;;;;;;;22.20;59.50;;;;;;5057187;28;19925;-73
2022/06/19 05:29:43;;;;;;;;;;;22.30;59.30;;;;;;5056857;28;19905;-73
2022/06/19 05:32:09;;;;;;;;;;;22.30;59.20;;;;;;5039968;28;20390;-74
2022/06/19 05:34:35;;;;;;;;;;;22.40;59.10;;;;;;5037103;28;20363;-73
2022/06/19 05:37:01;;;;;;;;;;;22.40;59.00;;;;;;5037107;28;20008;-74
2022/06/19 05:39:27;;;;;;;;;;;22.50;58.70;;;;;;5037159;28;19909;-73
2022/06/19 05:41:54;;;;;;;;;;;22.50;58.50;;;;;;5037741;28;20042;-73
2022/06/19 05:44:20;;;;;;;;;;;22.50;58.30;;;;;;5036908;28;20322;-74
2022/06/19 05:46:48;;;;;;;;;;;22.60;58.20;;;;;;5037154;28;19912;-75
2022/06/19 05:49:14;;;;;;;;;;;22.60;58.10;;;;;;5037115;28;19912;-74
2022/06/19 05:51:39;;;;;;;;;;;22.60;57.90;;;;;;5036950;28;20359;-74
2022/06/19 05:54:05;;;;;;;;;;;22.70;57.90;;;;;;5037018;28;19905;-73
2022/06/19 05:56:30;;;;;;;;;;;22.70;57.80;;;;;;5036058;28;19911;-74
2022/06/19 05:58:56;;;;;;;;;;;22.80;57.70;;;;;;5037158;28;20362;-74
2022/06/19 06:01:22;;;;;;;;;;;22.80;57.50;;;;;;5038220;28;19959;-73
2022/06/19 06:03:48;;;;;;;;;;;22.80;57.30;;;;;;5036367;28;19925;-72
2022/06/19 06:06:15;;;;;;;;;;;22.90;57.10;;;;;;5037967;28;19909;-73
2022/06/19 06:08:41;;;;;;;;;;;23.00;57.00;;;;;;5046842;28;19908;-73
2022/06/19 06:11:07;;;;;;;;;;;23.00;57.00;;;;;;5048939;28;19912;-73
2022/06/19 06:13:32;;;;;;;;;;;23.00;56.80;;;;;;5035162;28;19924;-75
2022/06/19 06:15:58;;;;;;;;;;;23.10;56.70;;;;;;5036471;28;19905;-70
2022/06/19 06:18:24;;;;;;;;;;;23.10;56.80;;;;;;5043574;28;19905;-70
2022/06/19 06:20:57;;;;;;;;;;;23.20;57.20;;;;;;5055965;28;19909;-72
2022/06/19 06:23:23;;;;;;;;;;;23.20;57.00;;;;;;5056170;28;19905;-70
2022/06/19 06:25:56;;;;;;;;;;;23.30;57.00;;;;;;5055951;28;19905;-72
2022/06/19 06:28:22;;;;;;;;;;;23.40;56.60;;;;;;5053996;28;19920;-72
2022/06/19 06:30:48;;;;;;;;;;;23.50;56.30;;;;;;5055831;28;20015;-71
2022/06/19 06:33:13;;;;;;;;;;;23.50;56.20;;;;;;5055743;28;20359;-71
2022/06/19 06:35:39;;;;;;;;;;;23.60;56.00;;;;;;5055802;28;19909;-71
2022/06/19 06:38:04;;;;;;;;;;;23.60;55.80;;;;;;5056027;28;19960;-71
2022/06/19 06:40:30;;;;;;;;;;;23.70;55.60;;;;;;5056112;28;19984;-71
2022/06/19 06:42:55;;;;;;;;;;;23.70;55.50;;;;;;5055719;28;20377;-71
2022/06/19 06:45:21;;;;;;;;;;;23.80;55.10;;;;;;5055656;28;19905;-72
2022/06/19 06:47:47;;;;;;;;;;;23.90;54.90;;;;;;5055627;28;19904;-71
2022/06/19 06:50:12;;;;;;;;;;;23.90;53.10;;;;;;5055936;28;19927;-71
2022/06/19 06:52:38;;;;;;;;;;;23.90;53.50;;;;;;5055581;28;20384;-71
2022/06/19 06:55:03;;;;;;;;;;;23.90;52.90;;;;;;5055339;28;19971;-71
2022/06/19 06:57:29;;;;;;;;;;;24.00;52.50;;;;;;5055311;28;19938;-71
2022/06/19 06:59:54;;;;;;;;;;;24.00;51.90;;;;;;5055377;28;19905;-71
2022/06/19 07:02:20;;;;;;;;;;;24.00;52.10;;;;;;5055227;28;19912;-71
2022/06/19 07:04:45;;;;;;;;;;;24.10;52.10;;;;;;5055243;28;19912;-71
2022/06/19 07:07:11;;;;;;;;;;;24.10;51.50;;;;;;5055487;28;19905;-72
2022/06/19 07:09:36;;;;;;;;;;;24.10;51.50;;;;;;5055413;28;19912;-74
2022/06/19 07:12:02;;;;;;;;;;;24.20;51.10;;;;;;5055313;28;20347;-72
2022/06/19 07:14:28;;;;;;;;;;;24.20;51.20;;;;;;5055338;28;19928;-72
2022/06/19 07:16:53;;;;;;;;;;;24.20;50.40;;;;;;5055072;28;19912;-71
2022/06/19 07:19:19;;;;;;;;;;;24.20;49.90;;;;;;5053919;28;19915;-72
2022/06/19 07:21:45;;;;;;;;;;;24.30;50.20;;;;;;5055135;28;19909;-72
2022/06/19 07:24:10;;;;;;;;;;;24.30;49.80;;;;;;5055407;28;19951;-72
2022/06/19 07:26:36;;;;;;;;;;;24.30;50.00;;;;;;5054998;28;19932;-72
2022/06/19 07:29:01;;;;;;;;;;;24.30;47.00;;;;;;5054864;28;19967;-72
2022/06/19 07:31:27;;;;;;;;;;;24.30;49.20;;;;;;5054750;28;19909;-72
2022/06/19 07:33:52;;;;;;;;;;;24.30;49.20;;;;;;5054615;28;19904;-72
2022/06/19 07:36:19;;;;;;;;;;;24.40;49.00;;;;;;5054832;28;20000;-71
2022/06/19 07:38:46;;;;;;;;;;;24.40;48.50;;;;;;5053839;28;19920;-71
2022/06/19 07:41:12;;;;;;;;;;;24.40;48.40;;;;;;5054573;28;19974;-72
2022/06/19 07:43:37;;;;;;;;;;;24.40;47.80;;;;;;5054402;28;19951;-71
2022/06/19 07:46:03;;;;;;;;;;;24.40;48.30;;;;;;5054233;28;19944;-72
2022/06/19 07:51:13;;;;;;;;;;;24.50;45.80;;;;;;5054427;28;19984;-71
2022/06/19 07:53:38;;;;;;;;;;;24.50;46.60;;;;;;5053973;28;19960;-72
2022/06/19 07:56:04;;;;;;;;;;;24.50;47.00;;;;;;5054746;28;20007;-71
2022/06/19 07:58:30;;;;;;;;;;;24.50;47.20;;;;;;5054027;28;20365;-71
2022/06/19 08:00:55;;;;;;;;;;;24.50;47.20;;;;;;5053929;28;19927;-72
2022/06/19 08:03:21;;;;;;;;;;;24.60;46.90;;;;;;5054329;28;20366;-71
2022/06/19 08:05:47;;;;;;;;;;;24.60;45.80;;;;;;5052972;28;20346;-72
2022/06/19 08:08:17;;;;;;;;;;;24.70;48.00;;;;;;5054231;28;19905;-70
2022/06/19 08:10:43;;;;;;;;;;;24.70;45.50;;;;;;5054026;28;19912;-72
2022/06/19 08:13:09;;;;;;;;;;;24.70;43.10;;;;;;5053974;28;19971;-72
2022/06/19 08:15:35;;;;;;;;;;;24.70;45.80;;;;;;5054061;28;19916;-71
2022/06/19 08:18:01;;;;;;;;;;;24.70;45.90;;;;;;5053231;28;19912;-71
2022/06/19 08:20:27;;;;;;;;;;;24.70;46.80;;;;;;5054013;28;19928;-72
2022/06/19 08:22:53;;;;;;;;;;;24.70;45.60;;;;;;5053706;28;20336;-72
2022/06/19 08:25:19;;;;;;;;;;;24.70;46.10;;;;;;5053863;28;20000;-72
2022/06/19 08:27:48;;;;;;;;;;;24.80;45.80;;;;;;5053977;28;19951;-73
2022/06/19 08:30:33;;;;;;;;;;;24.80;45.50;;;;;;5052338;28;19909;-71
2022/06/19 08:32:59;;;;;;;;;;;24.70;45.60;;;;;;5053831;28;20321;-71
2022/06/19 08:35:26;;;;;;;;;;;24.90;45.40;;;;;;5054007;28;19908;-72
2022/06/19 08:37:53;;;;;;;;;;;24.90;44.30;;;;;;5053731;28;19911;-71
2022/06/19 08:40:22;;;;;;;;;;;24.90;45.50;;;;;;5053901;28;19990;-69
2022/06/19 08:42:47;;;;;;;;;;;24.90;44.90;;;;;;5053544;28;19915;-72
2022/06/19 08:45:22;;;;;;;;;;;25.00;45.50;;;;;;5053809;28;19995;-72
2022/06/19 08:47:51;;;;;;;;;;;25.00;45.40;;;;;;5053780;28;19904;-72
2022/06/19 08:50:33;;;;;;;;;;;25.00;44.70;;;;;;5054764;28;20243;-72
2022/06/19 08:53:17;;;;;;;;;;;25.10;44.40;;;;;;5057728;28;19919;-72
2022/06/19 08:55:57;;;;;;;;;;;25.10;44.30;;;;;;5058164;28;19908;-73
2022/06/19 08:58:26;;;;;;;;;;;25.10;45.20;;;;;;5058070;28;19905;-72
2022/06/19 09:01:15;;;;;;;;;;;25.10;44.60;;;;;;5057774;28;19905;-72
2022/06/19 09:06:48;;;;;;;;;;;25.20;44.70;;;;;;5057674;28;20008;-73
2022/06/19 09:09:26;;;;;;;;;;;25.20;45.20;;;;;;5057805;28;19944;-72
2022/06/19 09:12:00;;;;;;;;;;;25.20;45.30;;;;;;5057031;28;20297;-72
2022/06/19 09:14:47;;;;;;;;;;;25.20;45.40;;;;;;5057678;28;19970;-72
2022/06/19 09:17:18;;;;;;;;;;;25.30;44.50;;;;;;5057403;28;19905;-71
2022/06/19 09:19:44;;;;;;;;;;;25.30;44.50;;;;;;5057441;28;19912;-72
2022/06/19 09:22:21;;;;;;;;;;;25.30;44.80;;;;;;5056796;28;19999;-72
2022/06/19 09:24:47;;;;;;;;;;;25.30;44.70;;;;;;5057496;28;19904;-71
2022/06/19 09:27:14;;;;;;;;;;;25.40;44.60;;;;;;5056738;28;19920;-72
2022/06/19 09:29:44;;;;;;;;;;;25.40;44.70;;;;;;5057006;28;19940;-70
2022/06/19 09:32:22;;;;;;;;;;;25.40;44.80;;;;;;5055634;28;19916;-72
2022/06/19 09:34:53;;;;;;;;;;;25.50;45.50;;;;;;5056765;28;19962;-73
2022/06/19 09:37:34;;;;;;;;;;;25.50;44.50;;;;;;5055772;28;19911;-72
2022/06/19 09:40:06;;;;;;;;;;;25.50;44.60;;;;;;5055685;28;19951;-72
2022/06/19 09:42:31;;;;;;;;;;;25.60;44.60;;;;;;5055568;28;19909;-72
2022/06/19 09:45:01;;;;;;;;;;;25.60;44.30;;;;;;5056626;28;19904;-72
2022/06/19 09:47:33;;;;;;;;;;;25.60;43.80;;;;;;5056476;28;19912;-72
2022/06/19 09:50:08;;;;;;;;;;;25.60;45.30;;;;;;5056393;28;19948;-72
2022/06/19 09:52:42;;;;;;;;;;;25.60;44.40;;;;;;5056351;28;20015;-72
2022/06/19 09:55:11;;;;;;;;;;;25.60;43.80;;;;;;5056521;28;20260;-74
2022/06/19 09:57:40;;;;;;;;;;;25.60;44.40;;;;;;5056330;28;20360;-73
2022/06/19 10:00:14;;;;;;;;;;;25.60;43.60;;;;;;5056383;28;19904;-69
2022/06/19 10:02:42;;;;;;;;;;;25.70;44.30;;;;;;5055649;28;19915;-73
2022/06/19 10:05:23;;;;;;;;;;;25.70;43.30;;;;;;5055257;28;19975;-72
2022/06/19 10:07:53;;;;;;;;;;;25.70;44.20;;;;;;5056531;28;19908;-72
2022/06/19 10:10:26;;;;;;;;;;;25.60;44.20;;;;;;5056189;28;20351;-72
2022/06/19 10:12:52;;;;;;;;;;;25.70;43.30;;;;;;5056783;28;20266;-73
2022/06/19 10:15:32;;;;;;;;;;;25.70;43.00;;;;;;5056114;28;19955;-73
2022/06/19 10:18:05;;;;;;;;;;;25.70;43.90;;;;;;5056328;28;19908;-73
2022/06/19 10:20:37;;;;;;;;;;;25.70;43.80;;;;;;5054976;28;19904;-75
2022/06/19 10:23:22;;;;;;;;;;;25.70;43.60;;;;;;5056333;28;19973;-72
2022/06/19 10:25:56;;;;;;;;;;;25.70;44.10;;;;;;5055530;28;19909;-72
2022/06/19 10:28:34;;;;;;;;;;;25.70;43.60;;;;;;5056171;28;19920;-73
2022/06/19 10:30:59;;;;;;;;;;;25.70;43.10;;;;;;5055954;28;19909;-72
2022/06/19 10:33:28;;;;;;;;;;;25.70;43.20;;;;;;5055750;28;19909;-72
2022/06/19 10:35:56;;;;;;;;;;;25.70;43.40;;;;;;5055733;28;19908;-72
2022/06/19 10:38:24;;;;;;;;;;;25.70;43.50;;;;;;5055860;28;20256;-72
2022/06/19 10:41:08;;;;;;;;;;;25.80;42.80;;;;;;5055997;28;20193;-73
2022/06/19 10:43:39;;;;;;;;;;;25.80;43.40;;;;;;5055756;28;19991;-74
2022/06/19 10:46:06;;;;;;;;;;;25.90;43.50;;;;;;5055529;28;20039;-73
2022/06/19 10:48:36;;;;;;;;;;;25.90;43.30;;;;;;5055639;28;20367;-73
2022/06/19 10:51:02;;;;;;;;;;;25.90;43.40;;;;;;5055720;28;19999;-73
2022/06/19 10:53:30;;;;;;;;;;;25.90;43.30;;;;;;5055549;28;20387;-73
2022/06/19 10:55:55;;;;;;;;;;;26.00;43.50;;;;;;5055738;28;19909;-73
2022/06/19 10:58:23;;;;;;;;;;;26.00;43.40;;;;;;5055564;28;19905;-72
2022/06/19 11:00:53;;;;;;;;;;;26.10;43.30;;;;;;5056625;28;19939;-72
2022/06/19 11:06:10;;;;;;;;;;;26.10;43.00;;;;;;5055469;28;19911;-73
2022/06/19 11:08:37;;;;;;;;;;;26.20;43.10;;;;;;5055006;28;19905;-71
2022/06/19 11:11:02;;;;;;;;;;;26.20;43.90;;;;;;5055088;28;20038;-72
2022/06/19 11:13:46;;;;;;;;;;;26.30;43.40;;;;;;5055340;28;19912;-74
2022/06/19 11:16:12;;;;;;;;;;;26.30;43.20;;;;;;5055288;28;19979;-72
2022/06/19 11:18:46;;;;;;;;;;;26.30;43.40;;;;;;5055291;28;20335;-71
2022/06/19 11:21:13;;;;;;;;;;;26.30;42.90;;;;;;5055132;28;19905;-73
2022/06/19 11:23:48;;;;;;;;;;;26.40;43.20;;;;;;5055164;28;19905;-72
2022/06/19 11:26:26;;;;;;;;;;;26.40;43.30;;;;;;5055322;28;20408;-72
2022/06/19 11:28:55;;;;;;;;;;;26.40;43.20;;;;;;5054721;28;20398;-72
2022/06/19 11:31:23;;;;;;;;;;;26.40;43.30;;;;;;5054649;28;19943;-73
2022/06/19 11:33:50;;;;;;;;;;;26.50;43.40;;;;;;5055054;28;20410;-72
2022/06/19 11:36:42;;;;;;;;;;;26.50;43.50;;;;;;5055422;28;19912;-72
2022/06/19 11:39:26;;;;;;;;;;;26.50;43.50;;;;;;5054470;28;19912;-73
2022/06/19 11:41:52;;;;;;;;;;;26.60;43.20;;;;;;5054772;28;19904;-73
2022/06/19 11:44:19;;;;;;;;;;;26.60;43.40;;;;;;5054538;28;20363;-71
2022/06/19 11:46:44;;;;;;;;;;;26.60;43.20;;;;;;5054575;28;20320;-72
2022/06/19 11:49:36;;;;;;;;;;;26.60;43.20;;;;;;5053210;28;19955;-72
2022/06/19 11:52:22;;;;;;;;;;;26.70;43.30;;;;;;5054260;28;20255;-73
2022/06/19 11:54:49;;;;;;;;;;;26.70;43.20;;;;;;5054267;28;20322;-73
2022/06/19 11:57:23;;;;;;;;;;;26.70;43.40;;;;;;5053437;28;19904;-72
2022/06/19 11:59:54;;;;;;;;;;;26.80;43.20;;;;;;5054546;28;19912;-72
2022/06/19 12:02:39;;;;;;;;;;;26.80;43.20;;;;;;5054467;28;19915;-73
2022/06/19 12:05:07;;;;;;;;;;;26.90;43.30;;;;;;5054664;28;20381;-72
2022/06/19 12:07:35;;;;;;;;;;;26.90;43.30;;;;;;5054338;28;19912;-72
2022/06/19 12:10:06;;;;;;;;;;;26.90;43.10;;;;;;5054337;28;19912;-72
2022/06/19 12:12:33;;;;;;;;;;;26.90;43.00;;;;;;5053867;28;19978;-72
2022/06/19 12:15:00;;;;;;;;;;;26.90;43.00;;;;;;5053974;28;19909;-73
2022/06/19 12:17:36;;;;;;;;;;;27.00;43.50;;;;;;5054268;28;19905;-73
2022/06/19 12:20:17;;;;;;;;;;;27.00;42.80;;;;;;5054469;28;19992;-72
2022/06/19 12:22:46;;;;;;;;;;;27.00;43.10;;;;;;5054395;28;20302;-72
2022/06/19 12:25:32;;;;;;;;;;;27.10;43.30;;;;;;5053853;28;19912;-73
2022/06/19 12:28:09;;;;;;;;;;;27.20;43.90;;;;;;5053745;28;20433;-72
2022/06/19 12:30:38;;;;;;;;;;;27.20;43.30;;;;;;5053142;28;19909;-72
2022/06/19 12:33:09;;;;;;;;;;;27.30;43.40;;;;;;5052611;28;20363;-73
2022/06/19 12:35:37;;;;;;;;;;;27.40;43.50;;;;;;5053814;28;19945;-72
2022/06/19 12:38:10;;;;;;;;;;;27.50;43.00;;;;;;5052302;28;20284;-73
2022/06/19 12:40:41;;;;;;;;;;;27.50;43.00;;;;;;5054247;28;20274;-72
2022/06/19 12:43:30;;;;;;;;;;;27.60;43.70;;;;;;5053019;28;19904;-76
2022/06/19 12:45:57;;;;;;;;;;;27.70;43.00;;;;;;5053888;28;19912;-71
2022/06/19 12:48:34;;;;;;;;;;;27.70;43.10;;;;;;5053588;28;19905;-73
2022/06/19 12:51:12;;;;;;;;;;;27.80;43.10;;;;;;5052571;28;20358;-73
2022/06/19 12:53:53;;;;;;;;;;;27.90;43.20;;;;;;5053974;28;19909;-73
2022/06/19 12:56:30;;;;;;;;;;;27.90;42.90;;;;;;5052524;28;20013;-71
2022/06/19 12:59:15;;;;;;;;;;;28.10;43.00;;;;;;5052456;28;19905;-71
2022/06/19 13:01:40;;;;;;;;;;;28.20;43.00;;;;;;5053634;28;20374;-75
2022/06/19 13:04:06;;;;;;;;;;;28.20;42.80;;;;;;5053649;28;19905;-72
2022/06/19 13:06:56;;;;;;;;;;;28.30;42.90;;;;;;5053809;28;19948;-73
2022/06/19 13:09:38;;;;;;;;;;;28.40;42.90;;;;;;5053629;28;19950;-73
2022/06/19 13:12:29;;;;;;;;;;;28.50;42.70;;;;;;5053889;28;19912;-72
2022/06/19 13:14:55;;;;;;;;;;;28.60;42.30;;;;;;5053812;28;19909;-72
2022/06/19 13:17:41;;;;;;;;;;;28.70;42.70;;;;;;5053356;28;19912;-73
2022/06/19 13:20:25;;;;;;;;;;;28.80;42.60;;;;;;5053834;28;20347;-72
2022/06/19 13:23:00;;;;;;;;;;;28.90;42.30;;;;;;5053421;28;19908;-73
2022/06/19 13:25:25;;;;;;;;;;;28.90;42.20;;;;;;5053402;28;20335;-76
2022/06/19 13:28:10;;;;;;;;;;;29.10;41.90;;;;;;5053340;28;19927;-73
2022/06/19 13:30:41;;;;;;;;;;;29.20;41.70;;;;;;5053269;28;19958;-72
2022/06/19 13:33:22;;;;;;;;;;;29.40;41.40;;;;;;5053220;28;19908;-72
2022/06/19 13:35:48;;;;;;;;;;;29.80;42.10;;;;;;5053185;28;19908;-72
2022/06/19 13:38:22;;;;;;;;;;;30.30;42.20;;;;;;5055548;28;19904;-72
2022/06/19 13:41:02;;;;;;;;;;;30.80;41.00;;;;;;5056803;28;19936;-73
2022/06/19 13:43:34;;;;;;;;;;;31.50;41.10;;;;;;5057224;28;20363;-73
2022/06/19 13:46:06;;;;;;;;;;;32.00;39.60;;;;;;5055598;28;20313;-73
2022/06/19 13:48:31;;;;;;;;;;;32.60;39.80;;;;;;5056914;28;19932;-73
2022/06/19 13:51:03;;;;;;;;;;;33.20;40.90;;;;;;5056547;28;19951;-73
2022/06/19 13:53:36;;;;;;;;;;;33.80;39.20;;;;;;5056586;28;19916;-74
2022/06/19 13:56:04;;;;;;;;;;;34.30;39.70;;;;;;5056910;28;19916;-73
2022/06/19 13:58:46;;;;;;;;;;;34.80;38.80;;;;;;5056989;28;19944;-72
2022/06/19 14:01:17;;;;;;;;;;;35.20;40.20;;;;;;5056657;28;19905;-73
2022/06/19 14:06:39;;;;;;;;;;;36.30;39.00;;;;;;5056629;28;19911;-73
2022/06/19 14:09:13;;;;;;;;;;;36.70;37.50;;;;;;5056339;28;19905;-73
2022/06/19 14:14:25;;;;;;;;;;;37.30;38.20;;;;;;5056474;28;19916;-72
2022/06/19 14:16:55;;;;;;;;;;;37.60;37.50;;;;;;5055871;28;19912;-73
2022/06/19 14:19:28;;;;;;;;;;;37.70;37.50;;;;;;5055962;28;19908;-73
2022/06/19 14:21:54;;;;;;;;;;;37.90;38.30;;;;;;5056394;28;20046;-72
2022/06/19 14:24:25;;;;;;;;;;;38.00;36.90;;;;;;5056108;28;19912;-72
2022/06/19 14:27:09;;;;;;;;;;;38.10;38.00;;;;;;5056124;28;20011;-73
2022/06/19 14:29:35;;;;;;;;;;;38.10;37.40;;;;;;5054896;28;19915;-73
2022/06/19 14:32:01;;;;;;;;;;;38.20;37.40;;;;;;5055760;28;19908;-73
2022/06/19 14:34:46;;;;;;;;;;;38.20;38.00;;;;;;5055807;28;19954;-73
2022/06/19 14:37:21;;;;;;;;;;;38.10;37.00;;;;;;5055993;28;20438;-73
2022/06/19 14:39:47;;;;;;;;;;;38.00;37.50;;;;;;5055833;28;20409;-72
2022/06/19 14:42:13;;;;;;;;;;;38.00;38.00;;;;;;5055874;28;19912;-72
2022/06/19 14:44:44;;;;;;;;;;;37.90;37.90;;;;;;5055760;28;19905;-73